Time;durP1;ratioP1;P1;durP2;ratioP2;P2;SDS_P1;SDS_P2;PMS_P1;PMS_P2;Temp;Humidity;BMP_temperature;BMP_pressure;BME280_temperature;BME280_humidity;BME280_pressure;Samples;Min_cycle;Max_cycle;Signal;HPM_P1;HPM_P2
2023/04/26 00:00:08;;;;;;;3.88;1.42;;;;;;;18.67;50.10;99508.91;5074806;28;20041;-65
2023/04/26 00:02:36;;;;;;;1.90;1.40;;;;;;;18.66;50.02;99515.31;5074787;28;20442;-65
2023/04/26 00:05:07;;;;;;;2.95;1.45;;;;;;;18.65;49.99;99515.50;5074949;28;20076;-65
2023/04/26 00:07:37;;;;;;;2.42;1.40;;;;;;;18.64;49.91;99511.06;5074632;28;20052;-65
2023/04/26 00:10:07;;;;;;;2.45;1.60;;;;;;;18.64;50.04;99511.06;5074604;28;20044;-65
2023/04/26 00:12:36;;;;;;;2.35;1.38;;;;;;;18.63;49.86;99517.47;5074779;28;20055;-65
2023/04/26 00:15:05;;;;;;;1.98;1.30;;;;;;;18.61;50.07;99520.31;5074691;28;20094;-64
2023/04/26 00:17:33;;;;;;;2.47;1.50;;;;;;;18.59;49.91;99517.78;5074409;28;20045;-65
2023/04/26 00:20:03;;;;;;;3.47;1.45;;;;;;;18.59;50.17;99511.53;5074570;28;20083;-65
2023/04/26 00:22:32;;;;;;;2.70;1.30;;;;;;;18.59;50.10;99522.34;5074460;28;20055;-65
2023/04/26 00:25:00;;;;;;;2.22;1.50;;;;;;;18.57;49.86;99524.38;5074343;28;20098;-65
2023/04/26 00:27:29;;;;;;;3.33;1.48;;;;;;;18.56;49.87;99528.06;5074499;28;20076;-65
2023/04/26 00:29:58;;;;;;;2.45;1.40;;;;;;;18.55;50.18;99531.78;5074384;28;20044;-65
2023/04/26 00:32:30;;;;;;;2.22;1.35;;;;;;;18.54;50.13;99536.34;5074211;28;20702;-64
2023/04/26 00:34:58;;;;;;;2.35;1.35;;;;;;;18.52;49.99;99538.34;5074303;28;20055;-64
2023/04/26 00:37:26;;;;;;;2.40;1.40;;;;;;;18.52;50.23;99545.59;5073987;28;20084;-64
2023/04/26 00:39:57;;;;;;;1.80;1.20;;;;;;;18.51;49.93;99536.66;5074276;28;20402;-64
2023/04/26 00:42:27;;;;;;;3.50;1.50;;;;;;;18.50;50.17;99542.22;5074188;28;20048;-64
2023/04/26 00:44:56;;;;;;;2.40;1.45;;;;;;;18.48;50.24;99546.94;5073955;28;20090;-64
2023/04/26 00:47:25;;;;;;;3.33;1.60;;;;;;;18.47;49.97;99551.47;5074040;28;20044;-64
2023/04/26 00:49:53;;;;;;;1.73;1.10;;;;;;;18.46;50.06;99554.34;5073829;28;20052;-64
2023/04/26 00:52:22;;;;;;;2.65;1.30;;;;;;;18.45;50.20;99542.69;5073308;28;20071;-64
2023/04/26 00:54:50;;;;;;;1.48;1.10;;;;;;;18.46;50.26;99554.34;5073801;28;20095;-64
2023/04/26 00:57:20;;;;;;;2.97;1.30;;;;;;;18.44;50.11;99545.56;5073828;28;20044;-64
2023/04/26 00:59:49;;;;;;;2.95;1.40;;;;;;;18.43;50.27;99555.53;5073777;28;20048;-64
2023/04/26 01:02:17;;;;;;;2.88;1.33;;;;;;;18.41;50.25;99553.97;5073623;28;20060;-64
2023/04/26 01:04:47;;;;;;;2.28;1.40;;;;;;;18.40;50.09;99554.97;5073840;28;20409;-64
2023/04/26 01:07:15;;;;;;;2.70;1.60;;;;;;;18.38;50.27;99552.44;5073554;28;20045;-64
2023/04/26 01:09:44;;;;;;;2.30;1.35;;;;;;;18.37;50.27;99558.00;5073560;28;20056;-64
2023/04/26 01:12:13;;;;;;;2.42;1.45;;;;;;;18.37;50.24;99563.41;5073578;28;20547;-64
2023/04/26 01:14:46;;;;;;;1.95;1.20;;;;;;;18.37;50.16;99558.00;5073512;28;20105;-64
2023/04/26 01:17:14;;;;;;;2.42;1.27;;;;;;;18.36;50.14;99561.72;5073291;28;20497;-64
2023/04/26 01:19:47;;;;;;;2.17;1.27;;;;;;;18.35;50.30;99565.41;5073436;28;20094;-64
2023/04/26 01:22:16;;;;;;;2.57;1.30;;;;;;;18.33;50.27;99570.09;5073524;28;20128;-64
2023/04/26 01:24:49;;;;;;;1.98;1.20;;;;;;;18.31;50.37;99570.28;5073383;28;20285;-64
2023/04/26 01:27:17;;;;;;;;;;;;;;;18.30;50.23;99577.53;5073672;28;20044;-64
2023/04/26 01:29:46;;;;;;;1.98;1.20;;;;;;;18.30;50.05;99577.53;5072864;28;20376;-64
2023/04/26 01:32:15;;;;;;;2.42;1.40;;;;;;;18.28;50.07;99579.53;5073227;28;20051;-64
2023/04/26 01:34:43;;;;;;;2.30;1.45;;;;;;;18.27;50.35;99577.84;5073341;28;20052;-64
2023/04/26 01:37:11;;;;;;;2.65;1.45;;;;;;;18.27;50.15;99579.69;5073142;28;20059;-64
2023/04/26 01:39:39;;;;;;;2.72;1.30;;;;;;;18.26;50.13;99581.56;5073043;28;20046;-64
2023/04/26 01:42:08;;;;;;;2.92;1.80;;;;;;;18.25;49.97;99582.56;5072682;28;20048;-64
2023/04/26 01:44:36;;;;;;;1.77;1.23;;;;;;;18.24;50.20;99588.97;5072983;28;20481;-63
2023/04/26 01:47:05;;;;;;;2.15;1.40;;;;;;;18.23;49.93;99586.41;5072874;28;20071;-64
2023/04/26 01:49:33;;;;;;;2.05;1.30;;;;;;;18.22;50.07;99584.72;5072780;28;20044;-64
2023/04/26 01:52:01;;;;;;;2.88;1.50;;;;;;;18.21;49.97;99583.88;5072791;28;20387;-64
2023/04/26 01:54:29;;;;;;;2.10;1.45;;;;;;;18.19;49.98;99593.97;5072597;28;20052;-64
2023/04/26 01:56:57;;;;;;;2.17;1.42;;;;;;;18.18;49.89;99592.28;5072528;28;20054;-64
2023/04/26 01:59:29;;;;;;;1.90;1.15;;;;;;;18.17;50.33;99587.06;5072722;28;20090;-64
2023/04/26 02:01:57;;;;;;;2.47;1.40;;;;;;;18.16;50.17;99594.31;5072528;28;20455;-64
2023/04/26 02:04:26;;;;;;;2.72;1.23;;;;;;;18.14;50.07;99593.59;5072284;28;20078;-64
2023/04/26 02:06:54;;;;;;;2.50;1.58;;;;;;;18.12;49.98;99592.91;5072588;28;20132;-64
2023/04/26 02:09:22;;;;;;;2.15;1.25;;;;;;;18.12;49.91;99594.75;5072164;28;20485;-64
2023/04/26 02:11:50;;;;;;;2.47;1.38;;;;;;;18.11;50.12;99606.56;5072231;28;20482;-64
2023/04/26 02:14:19;;;;;;;1.85;1.30;;;;;;;18.10;50.03;99602.16;5072433;28;20389;-64
2023/04/26 02:16:48;;;;;;;1.92;1.30;;;;;;;18.07;50.07;99614.13;5072254;28;20056;-64
2023/04/26 02:19:16;;;;;;;2.33;1.33;;;;;;;18.06;50.09;99603.50;5072253;28;20048;-64
2023/04/26 02:21:56;;;;;;;2.47;1.30;;;;;;;18.05;50.12;99608.03;5072033;28;20068;-64
2023/04/26 02:24:24;;;;;;;2.83;1.50;;;;;;;18.04;50.12;99603.63;5072253;28;20045;-64
2023/04/26 02:26:53;;;;;;;2.05;1.30;;;;;;;18.02;50.07;99605.63;5072095;28;20086;-63
2023/04/26 02:29:21;;;;;;;1.70;1.25;;;;;;;18.02;49.91;99608.34;5071980;28;20047;-64
2023/04/26 02:32:11;;;;;;;1.92;1.30;;;;;;;18.01;49.92;99614.75;5071986;28;20133;-64
2023/04/26 02:34:39;;;;;;;2.83;1.48;;;;;;;18.00;49.83;99607.66;5071885;28;20049;-64
2023/04/26 02:37:07;;;;;;;2.13;1.30;;;;;;;17.98;49.88;99612.34;5071773;28;20497;-64
2023/04/26 02:39:36;;;;;;;2.63;1.50;;;;;;;17.96;49.90;99606.28;5071964;28;20049;-63
2023/04/26 02:42:04;;;;;;;1.77;1.30;;;;;;;17.95;49.86;99616.22;5072312;28;20044;-64
2023/04/26 02:44:32;;;;;;;2.53;1.42;;;;;;;17.94;49.90;99609.09;5071691;28;20048;-63
2023/04/26 02:47:00;;;;;;;1.90;1.25;;;;;;;17.93;49.85;99606.56;5071740;28;20045;-64
2023/04/26 02:49:30;;;;;;;3.05;1.70;;;;;;;17.92;49.76;99610.28;5071876;28;20045;-64
2023/04/26 02:51:59;;;;;;;2.05;1.30;;;;;;;17.91;50.04;99611.28;5071812;28;20405;-64
2023/04/26 02:54:27;;;;;;;2.50;1.40;;;;;;;17.91;49.69;99619.38;5071744;28;20058;-65
2023/04/26 02:56:55;;;;;;;2.38;1.30;;;;;;;17.90;49.86;99614.97;5071701;28;20045;-65
2023/04/26 02:59:23;;;;;;;2.85;1.40;;;;;;;17.87;49.70;99623.38;5071574;28;20063;-67
2023/04/26 03:01:51;;;;;;;2.38;1.50;;;;;;;17.87;49.77;99631.47;5071487;28;20080;-65
2023/04/26 03:04:19;;;;;;;2.55;1.27;;;;;;;17.85;50.00;99637.00;5071699;28;20128;-65
2023/04/26 03:06:49;;;;;;;2.47;1.40;;;;;;;17.85;49.83;99649.66;5071880;28;20094;-65
2023/04/26 03:09:17;;;;;;;2.63;1.42;;;;;;;17.83;49.97;99647.09;5071534;28;20090;-65
2023/04/26 03:11:46;;;;;;;1.98;1.40;;;;;;;17.83;49.96;99648.97;5071588;28;20448;-64
2023/04/26 03:14:17;;;;;;;1.65;1.15;;;;;;;17.81;49.78;99651.81;5071431;28;20052;-64
2023/04/26 03:16:45;;;;;;;1.42;1.13;;;;;;;17.80;49.86;99654.66;5073606;28;20055;-64
2023/04/26 03:19:13;;;;;;;1.73;1.25;;;;;;;17.78;49.80;99662.06;5075616;28;20489;-64
2023/04/26 03:21:41;;;;;;;2.15;1.20;;;;;;;17.78;49.84;99670.16;5075703;28;20440;-64
2023/04/26 03:24:11;;;;;;;2.78;1.38;;;;;;;17.74;49.97;99667.75;5075487;28;20049;-64
2023/04/26 03:26:39;;;;;;;2.55;1.45;;;;;;;17.74;49.61;99672.31;5075244;28;20053;-64
2023/04/26 03:29:07;;;;;;;2.67;1.30;;;;;;;17.73;49.80;99673.31;5075632;28;20143;-65
2023/04/26 03:31:35;;;;;;;1.75;1.33;;;;;;;17.71;49.90;99673.47;5075577;28;20060;-65
2023/04/26 03:34:04;;;;;;;1.70;1.30;;;;;;;17.69;49.72;99675.47;5075365;28;20413;-65
2023/04/26 03:36:32;;;;;;;3.05;1.45;;;;;;;17.68;49.70;99678.28;5075336;28;20048;-65
2023/04/26 03:39:00;;;;;;;1.92;1.25;;;;;;;17.67;49.95;99673.91;5075340;28;20103;-64
2023/04/26 03:41:32;;;;;;;3.33;1.55;;;;;;;17.66;50.01;99677.56;5075123;28;20525;-65
2023/04/26 03:44:00;;;;;;;2.38;1.30;;;;;;;17.66;49.89;99686.53;5075021;28;20090;-64
2023/04/26 03:46:28;;;;;;;2.33;1.40;;;;;;;17.63;49.66;99681.41;5074937;28;20052;-64
2023/04/26 03:48:56;;;;;;;2.03;1.25;;;;;;;17.64;49.66;99693.91;5075200;28;20053;-64
2023/04/26 03:51:24;;;;;;;2.33;1.42;;;;;;;17.63;49.80;99696.75;5074815;28;20493;-64
2023/04/26 03:53:52;;;;;;;2.05;1.27;;;;;;;17.63;49.66;99700.31;5074869;28;20396;-64
2023/04/26 03:56:20;;;;;;;2.15;1.33;;;;;;;17.61;49.68;99698.75;5075059;28;20477;-65
2023/04/26 03:58:50;;;;;;;2.53;1.40;;;;;;;17.60;49.96;99706.00;5075050;28;20048;-65
2023/04/26 04:01:19;;;;;;;2.03;1.27;;;;;;;17.60;49.71;99703.31;5074677;28;20379;-65
2023/04/26 04:03:47;;;;;;;2.40;1.30;;;;;;;17.58;49.67;99702.63;5074678;28;20047;-65
2023/04/26 04:06:16;;;;;;;2.13;1.35;;;;;;;17.58;49.85;99702.63;5074633;28;20524;-65
2023/04/26 04:08:44;;;;;;;2.80;1.50;;;;;;;17.57;49.88;99706.31;5074602;28;20501;-64
2023/04/26 04:11:12;;;;;;;1.58;1.20;;;;;;;17.57;49.79;99709.00;5074447;28;20486;-65
2023/04/26 04:13:40;;;;;;;2.58;1.50;;;;;;;17.56;49.94;99712.69;5074492;28;20051;-64
2023/04/26 04:16:10;;;;;;;2.55;1.30;;;;;;;17.55;49.86;99710.97;5074455;28;20091;-64
2023/04/26 04:18:38;;;;;;;1.73;1.13;;;;;;;17.55;49.68;99710.97;5074449;28;20040;-64
2023/04/26 04:21:06;;;;;;;2.50;1.60;;;;;;;17.55;49.75;99718.22;5074232;28;20044;-64
2023/04/26 04:23:34;;;;;;;2.47;1.20;;;;;;;17.54;49.64;99713.84;5074292;28;20045;-64
2023/04/26 04:26:02;;;;;;;3.00;1.48;;;;;;;17.53;49.61;99707.59;5074440;28;20052;-65
2023/04/26 04:28:30;;;;;;;2.03;1.40;;;;;;;17.53;49.85;99702.19;5073864;28;20054;-65
2023/04/26 04:30:59;;;;;;;2.15;1.30;;;;;;;17.53;49.65;99699.50;5074163;28;20065;-65
2023/04/26 04:33:29;;;;;;;2.45;1.40;;;;;;;17.51;49.88;99728.47;5074610;28;20049;-64
2023/04/26 04:35:57;;;;;;;1.63;1.38;;;;;;;17.50;49.70;99734.03;5074065;28;20081;-65
2023/04/26 04:38:25;;;;;;;1.40;1.05;;;;;;;17.51;49.85;99744.66;5074582;28;20101;-65
2023/04/26 04:40:53;;;;;;;1.95;1.35;;;;;;;17.50;49.77;99742.97;5074047;28;20540;-65
2023/04/26 04:43:22;;;;;;;2.70;1.30;;;;;;;17.49;49.84;99754.75;5074143;28;20045;-65
2023/04/26 04:45:50;;;;;;;3.28;1.40;;;;;;;17.50;49.59;99751.03;5073513;28;20072;-64
2023/04/26 04:48:20;;;;;;;2.42;1.50;;;;;;;17.50;49.54;99756.44;5073717;28;20420;-65
2023/04/26 04:50:50;;;;;;;2.53;1.20;;;;;;;17.49;49.67;99749.34;5073824;28;20406;-65
2023/04/26 04:53:18;;;;;;;2.00;1.35;;;;;;;17.48;49.61;99758.44;5073864;28;20090;-65
2023/04/26 04:55:48;;;;;;;3.05;1.60;;;;;;;17.47;49.63;99756.75;5073796;28;20459;-65
2023/04/26 04:58:16;;;;;;;2.42;1.27;;;;;;;17.48;49.68;99766.53;5073644;28;20045;-65
2023/04/26 05:00:45;;;;;;;2.20;1.25;;;;;;;17.46;49.56;99769.34;5073610;28;20051;-64
2023/04/26 05:03:14;;;;;;;2.15;1.30;;;;;;;17.46;49.60;99781.97;5073886;28;20056;-65
2023/04/26 05:05:42;;;;;;;2.78;1.50;;;;;;;17.46;49.40;99784.69;5073677;28;20070;-64
2023/04/26 05:08:12;;;;;;;2.72;1.45;;;;;;;17.44;49.75;99790.22;5073723;28;20044;-64
2023/04/26 05:10:45;;;;;;;2.70;1.55;;;;;;;17.43;49.46;99787.69;5073209;28;20044;-65
2023/04/26 05:13:13;;;;;;;2.70;1.58;;;;;;;17.43;49.41;99790.38;5073478;28;20438;-64
2023/04/26 05:15:41;;;;;;;3.00;1.52;;;;;;;17.43;49.57;99782.28;5070989;28;20040;-63
2023/04/26 05:18:10;;;;;;;2.63;1.30;;;;;;;17.43;49.60;99782.28;5051822;28;20071;-64
2023/04/26 05:20:41;;;;;;;2.42;1.33;;;;;;;17.42;49.45;99785.97;5052318;28;20455;-65
2023/04/26 05:23:10;;;;;;;2.28;1.40;;;;;;;17.41;49.61;99795.06;5053284;28;20410;-64
2023/04/26 05:25:39;;;;;;;3.13;1.50;;;;;;;17.40;49.60;99804.16;5053209;28;20049;-65
2023/04/26 05:28:11;;;;;;;3.47;1.67;;;;;;;17.39;49.49;99792.53;5052912;28;20056;-64
2023/04/26 05:30:40;;;;;;;2.25;1.50;;;;;;;17.38;49.26;99788.13;5053002;28;20160;-65
2023/04/26 05:33:08;;;;;;;2.03;1.17;;;;;;;17.38;49.34;99795.38;5052886;28;20071;-65
2023/04/26 05:35:36;;;;;;;3.75;2.08;;;;;;;17.37;49.23;99801.72;5052933;28;20056;-64
2023/04/26 05:38:04;;;;;;;2.53;1.40;;;;;;;17.37;49.31;99793.66;5052674;28;20113;-64
2023/04/26 05:40:32;;;;;;;4.13;1.70;;;;;;;17.36;49.26;99794.66;5051787;28;20049;-64
2023/04/26 05:43:03;;;;;;;3.63;1.70;;;;;;;17.35;49.32;99804.56;5052804;28;20449;-63
2023/04/26 05:45:31;;;;;;;2.88;1.58;;;;;;;17.34;49.35;99799.34;5052335;28;20049;-64
2023/04/26 05:47:59;;;;;;;4.82;1.80;;;;;;;17.33;49.42;99803.03;5052533;28;20136;-64
2023/04/26 05:50:27;;;;;;;2.20;1.40;;;;;;;17.33;49.31;99800.34;5052349;28;20596;-63
2023/04/26 05:52:55;;;;;;;3.08;1.70;;;;;;;17.31;49.07;99811.28;5052505;28;20053;-64
2023/04/26 05:55:24;;;;;;;3.00;1.58;;;;;;;17.30;49.09;99806.03;5052601;28;20079;-63
2023/04/26 05:57:52;;;;;;;3.00;1.60;;;;;;;17.30;49.15;99797.94;5052575;28;20060;-64
2023/04/26 06:00:23;;;;;;;3.17;1.58;;;;;;;17.27;49.00;99820.63;5052329;28;20084;-64
2023/04/26 06:02:51;;;;;;;2.85;1.48;;;;;;;17.28;49.09;99816.13;5052252;28;20081;-64
2023/04/26 06:05:20;;;;;;;3.90;1.67;;;;;;;17.26;48.94;99818.94;5052094;28;20650;-64
2023/04/26 06:07:48;;;;;;;3.85;1.67;;;;;;;17.26;49.02;99807.31;5052061;28;20057;-64
2023/04/26 06:10:16;;;;;;;3.83;1.70;;;;;;;17.24;48.98;99812.84;5052227;28;20064;-64
2023/04/26 06:12:45;;;;;;;3.38;1.48;;;;;;;17.23;49.14;99826.47;5052164;28;20085;-64
2023/04/26 06:15:13;;;;;;;3.08;1.75;;;;;;;17.23;48.79;99807.59;5052329;28;20049;-64
2023/04/26 06:17:43;;;;;;;3.45;1.58;;;;;;;17.23;48.98;99813.00;5051927;28;20041;-64
2023/04/26 06:20:12;;;;;;;2.92;1.70;;;;;;;17.22;48.96;99816.69;5051258;28;20079;-64
2023/04/26 06:22:40;;;;;;;2.95;1.60;;;;;;;17.21;48.83;99820.38;5051316;28;20084;-64
2023/04/26 06:25:09;;;;;;;4.22;1.50;;;;;;;17.20;48.69;99830.31;5052107;28;20045;-64
2023/04/26 06:27:38;;;;;;;3.28;1.67;;;;;;;17.20;48.94;99829.47;5051700;28;20052;-64
2023/04/26 06:30:07;;;;;;;4.57;1.80;;;;;;;17.16;48.85;99829.72;5051887;28;20049;-64
2023/04/26 06:32:38;;;;;;;3.35;1.70;;;;;;;17.16;48.67;99824.34;5051469;28;20418;-64
2023/04/26 06:35:08;;;;;;;3.17;1.63;;;;;;;17.15;48.90;99828.03;5051516;28;20124;-64
2023/04/26 06:37:37;;;;;;;2.97;1.45;;;;;;;17.15;48.73;99817.25;5051840;28;20075;-63
2023/04/26 06:40:06;;;;;;;3.13;1.55;;;;;;;17.14;48.77;99829.03;5051725;28;20048;-63
2023/04/26 06:42:35;;;;;;;3.97;1.88;;;;;;;17.14;48.76;99831.72;5051727;28;20362;-64
2023/04/26 06:45:04;;;;;;;3.95;1.60;;;;;;;17.12;48.55;99828.34;5051967;28;20441;-64
2023/04/26 06:47:32;;;;;;;2.67;1.60;;;;;;;17.13;48.50;99831.88;5051384;28;20136;-64
2023/04/26 06:50:00;;;;;;;2.10;1.42;;;;;;;17.11;48.61;99837.41;5051304;28;20052;-63
2023/04/26 06:52:31;;;;;;;2.72;1.52;;;;;;;17.11;48.66;99831.19;5051253;28;20059;-65
2023/04/26 06:55:01;;;;;;;2.53;1.45;;;;;;;17.11;48.47;99834.72;5051688;28;20041;-65
2023/04/26 06:57:30;;;;;;;3.58;1.60;;;;;;;17.10;48.42;99841.09;5051435;28;20044;-63
2023/04/26 06:59:58;;;;;;;3.65;1.80;;;;;;;17.10;48.50;99840.25;5051404;28;20068;-64
2023/04/26 07:02:26;;;;;;;3.28;1.50;;;;;;;17.08;48.58;99837.72;5051455;28;20140;-63
2023/04/26 07:04:55;;;;;;;2.92;1.70;;;;;;;17.08;48.51;99840.41;5051845;28;20075;-64
2023/04/26 07:07:23;;;;;;;3.22;1.67;;;;;;;17.07;48.61;99840.53;5051660;28;20049;-63
2023/04/26 07:09:53;;;;;;;3.80;1.70;;;;;;;17.09;48.56;99843.94;5051345;28;20041;-63
2023/04/26 07:12:21;;;;;;;3.80;1.60;;;;;;;17.07;48.57;99835.13;5051031;28;20417;-64
2023/04/26 07:14:52;;;;;;;3.30;1.60;;;;;;;17.08;48.46;99839.53;5051114;28;20480;-63
2023/04/26 07:17:21;;;;;;;2.45;1.55;;;;;;;17.07;48.51;99832.44;5051291;28;20064;-62
2023/04/26 07:19:49;;;;;;;2.50;1.58;;;;;;;17.07;48.54;99835.97;5051339;28;20465;-63
2023/04/26 07:22:17;;;;;;;3.08;1.65;;;;;;;17.07;48.70;99846.75;5051378;28;20049;-63
2023/04/26 07:24:45;;;;;;;3.40;1.63;;;;;;;17.06;48.65;99839.69;5051175;28;20072;-64
2023/04/26 07:27:15;;;;;;;3.30;1.45;;;;;;;17.07;48.69;99845.91;5051110;28;20080;-63
2023/04/26 07:29:43;;;;;;;2.58;1.70;;;;;;;17.06;48.63;99866.63;5051194;28;20073;-63
2023/04/26 07:32:11;;;;;;;2.75;1.63;;;;;;;17.07;48.81;99862.94;5050994;28;20084;-63
2023/04/26 07:34:40;;;;;;;2.85;1.63;;;;;;;17.06;48.70;99866.63;5051103;28;20056;-64
2023/04/26 07:37:08;;;;;;;2.80;1.50;;;;;;;17.07;48.70;99862.94;5051159;28;20049;-64
2023/04/26 07:39:37;;;;;;;3.22;1.55;;;;;;;17.08;48.82;99869.16;5051247;28;20045;-65
2023/04/26 07:42:06;;;;;;;3.08;1.60;;;;;;;17.08;48.71;99863.78;5051214;28;20052;-64
2023/04/26 07:44:35;;;;;;;3.45;1.50;;;;;;;17.08;48.76;99867.34;5050971;28;20097;-64
2023/04/26 07:47:03;;;;;;;4.22;1.60;;;;;;;17.09;48.72;99870.91;5051070;28;20591;-64
2023/04/26 07:49:34;;;;;;;3.08;1.80;;;;;;;17.08;48.78;99870.03;5050994;28;20084;-64
2023/04/26 07:52:02;;;;;;;3.90;1.65;;;;;;;17.10;48.61;99886.91;5050696;28;20142;-64
2023/04/26 07:54:30;;;;;;;3.90;1.52;;;;;;;17.12;48.60;99879.53;5050723;28;20048;-64
2023/04/26 07:56:58;;;;;;;2.47;1.55;;;;;;;17.12;48.77;99884.91;5050847;28;20088;-64
2023/04/26 07:59:26;;;;;;;3.05;1.55;;;;;;;17.13;48.69;99883.94;5050784;28;20103;-64
2023/04/26 08:01:56;;;;;;;3.72;1.52;;;;;;;17.14;48.74;99895.56;5051285;28;20134;-64
2023/04/26 08:04:32;;;;;;;3.00;1.70;;;;;;;17.15;48.57;99898.09;5054633;28;20049;-64
2023/04/26 08:07:01;;;;;;;2.70;1.42;;;;;;;17.16;48.71;99894.41;5054513;28;20056;-64
2023/04/26 08:09:30;;;;;;;4.10;1.50;;;;;;;17.16;48.18;99880.94;5054438;28;20457;-64
2023/04/26 08:11:58;;;;;;;3.10;1.52;;;;;;;17.16;48.71;99891.72;5054311;28;20490;-64
2023/04/26 08:14:27;;;;;;;2.55;1.48;;;;;;;17.16;48.26;99899.81;5054441;28;20060;-64
2023/04/26 08:16:57;;;;;;;3.95;1.35;;;;;;;17.16;48.38;99890.88;5054551;28;20094;-64
2023/04/26 08:19:28;;;;;;;3.50;1.50;;;;;;;17.17;48.46;99898.81;5054169;28;20437;-65
2023/04/26 08:21:56;;;;;;;3.45;1.50;;;;;;;17.17;48.32;99906.03;5054376;28;20072;-64
2023/04/26 08:24:24;;;;;;;2.72;1.45;;;;;;;17.17;48.13;99914.13;5054342;28;20127;-64
2023/04/26 08:26:52;;;;;;;4.05;1.52;;;;;;;17.17;48.26;99912.28;5054135;28;20059;-63
2023/04/26 08:29:21;;;;;;;2.50;1.38;;;;;;;17.19;48.40;99914.84;5054287;28;20046;-63
2023/04/26 08:31:49;;;;;;;3.38;1.60;;;;;;;17.20;48.17;99918.41;5054048;28;20045;-63
2023/04/26 08:34:18;;;;;;;2.13;1.25;;;;;;;17.19;48.23;99920.25;5054105;28;20128;-63
2023/04/26 08:36:46;;;;;;;3.40;1.45;;;;;;;17.18;48.41;99921.25;5054161;28;20044;-63
2023/04/26 08:39:16;;;;;;;2.28;1.25;;;;;;;17.20;48.43;99918.41;5054096;28;20049;-64
2023/04/26 08:41:50;;;;;;;3.45;1.60;;;;;;;17.21;48.50;99917.41;5054409;28;20060;-63
2023/04/26 08:44:23;;;;;;;2.85;1.52;;;;;;;17.23;48.56;99928.88;5053978;28;20060;-64
2023/04/26 08:47:01;;;;;;;2.50;1.38;;;;;;;17.23;48.50;99916.25;5053938;28;20569;-64
2023/04/26 08:49:40;;;;;;;2.13;1.30;;;;;;;17.24;48.31;99917.09;5054140;28;20052;-64
2023/04/26 08:52:10;;;;;;;2.63;1.50;;;;;;;17.24;48.66;99919.81;5053695;28;20068;-63
2023/04/26 08:54:40;;;;;;;3.10;1.40;;;;;;;17.25;48.42;99916.97;5053516;28;20064;-64
2023/04/26 08:57:11;;;;;;;2.38;1.30;;;;;;;17.26;48.28;99937.53;5053466;28;20049;-63
2023/04/26 08:59:40;;;;;;;3.92;1.70;;;;;;;17.26;48.45;99926.75;5053762;28;20140;-63
2023/04/26 09:02:10;;;;;;;3.28;1.55;;;;;;;17.27;48.53;99924.91;5053517;28;20091;-64
2023/04/26 09:04:41;;;;;;;5.15;1.70;;;;;;;17.28;48.56;99923.94;5053565;28;20140;-65
2023/04/26 09:07:13;;;;;;;3.08;1.52;;;;;;;17.30;48.55;99932.72;5053642;28;20049;-64
2023/04/26 09:09:44;;;;;;;2.80;1.58;;;;;;;17.31;48.57;99929.03;5053461;28;20446;-64
2023/04/26 09:12:12;;;;;;;3.47;1.40;;;;;;;17.32;48.40;99914.56;5053577;28;20047;-64
2023/04/26 09:14:40;;;;;;;3.67;1.63;;;;;;;17.32;48.47;99928.03;5052774;28;20045;-65
2023/04/26 09:17:27;;;;;;;2.10;1.40;;;;;;;17.33;48.40;99932.44;5053355;28;20087;-65
2023/04/26 09:19:57;;;;;;;3.33;1.50;;;;;;;17.33;48.52;99924.34;5053077;28;20053;-65
2023/04/26 09:22:31;;;;;;;3.00;1.30;;;;;;;17.35;48.54;99922.34;5053069;28;20059;-65
2023/04/26 09:25:00;;;;;;;2.65;1.40;;;;;;;17.37;48.41;99923.03;5053162;28;20494;-65
2023/04/26 09:27:36;;;;;;;2.63;1.40;;;;;;;17.37;48.40;99929.31;5053235;28;20041;-65
2023/04/26 09:30:08;;;;;;;2.35;1.27;;;;;;;17.38;48.47;99924.78;5052857;28;20044;-65
2023/04/26 09:32:51;;;;;;;3.05;1.50;;;;;;;17.40;48.52;99929.03;5052761;28;20502;-65
2023/04/26 09:35:29;;;;;;;2.13;1.40;;;;;;;17.42;48.46;99936.97;5053099;28;20053;-65
2023/04/26 09:38:00;;;;;;;3.03;1.50;;;;;;;17.41;48.35;99922.63;5052674;28;20041;-65
2023/04/26 09:40:37;;;;;;;4.35;1.73;;;;;;;17.42;48.30;99931.56;5052811;28;20049;-64
2023/04/26 09:43:07;;;;;;;4.32;1.58;;;;;;;17.43;48.45;99928.72;5052657;28;20127;-64
2023/04/26 09:45:44;;;;;;;2.40;1.30;;;;;;;17.46;48.38;99930.28;5052616;28;20089;-64
2023/04/26 09:48:19;;;;;;;4.03;1.38;;;;;;;17.46;48.08;99933.81;5052833;28;20144;-64
2023/04/26 09:50:51;;;;;;;2.60;1.42;;;;;;;17.46;48.20;99931.13;5052502;28;20490;-64
2023/04/26 09:53:27;;;;;;;3.25;1.52;;;;;;;17.49;48.42;99926.47;5052782;28;20053;-64
2023/04/26 09:56:08;;;;;;;2.50;1.40;;;;;;;17.50;48.27;99918.22;5052621;28;20514;-64
2023/04/26 09:58:56;;;;;;;3.17;1.40;;;;;;;17.51;48.11;99925.31;5052884;28;20049;-65
2023/04/26 10:01:28;;;;;;;3.38;1.55;;;;;;;17.53;47.86;99922.47;5052554;28;20124;-65
2023/04/26 10:03:57;;;;;;;2.50;1.33;;;;;;;17.54;47.75;99925.00;5052416;28;20045;-64
2023/04/26 10:06:28;;;;;;;3.15;1.55;;;;;;;17.55;47.77;99931.25;5052661;28;20124;-64
2023/04/26 10:08:56;;;;;;;3.22;1.40;;;;;;;17.56;47.83;99919.47;5052502;28;20053;-64
2023/04/26 10:11:26;;;;;;;2.45;1.20;;;;;;;17.58;47.89;99915.66;5052439;28;20413;-64
2023/04/26 10:13:55;;;;;;;3.03;1.40;;;;;;;17.59;47.60;99914.66;5052221;28;20128;-64
2023/04/26 10:16:24;;;;;;;2.28;1.23;;;;;;;17.61;47.86;99918.06;5052244;28;20135;-65
2023/04/26 10:18:52;;;;;;;2.28;1.20;;;;;;;17.64;47.80;99915.06;5052429;28;20041;-65
2023/04/26 10:21:27;;;;;;;2.10;1.35;;;;;;;17.66;47.79;99921.19;5052245;28;20102;-65
2023/04/26 10:23:59;;;;;;;2.75;1.40;;;;;;;17.67;47.91;99920.19;5052116;28;20053;-65
2023/04/26 10:26:50;;;;;;;2.53;1.35;;;;;;;17.68;47.77;99924.56;5052120;28;20041;-65
2023/04/26 10:29:19;;;;;;;4.47;1.50;;;;;;;17.70;47.52;99919.91;5052008;28;20098;-64
2023/04/26 10:32:08;;;;;;;3.97;1.20;;;;;;;17.73;47.37;99916.06;5051972;28;20048;-64
2023/04/26 10:34:37;;;;;;;2.40;1.20;;;;;;;17.74;47.70;99924.00;5051895;28;20052;-64
2023/04/26 10:37:10;;;;;;;1.80;1.30;;;;;;;17.76;47.27;99917.59;5051879;28;20049;-64
2023/04/26 10:39:40;;;;;;;3.28;1.30;;;;;;;17.78;47.45;99923.72;5051835;28;20057;-64
2023/04/26 10:42:22;;;;;;;2.28;1.45;;;;;;;17.80;47.14;99921.72;5052017;28;20049;-64
2023/04/26 10:44:52;;;;;;;3.03;1.25;;;;;;;17.82;47.13;99923.28;5051923;28;20056;-64
2023/04/26 10:47:25;;;;;;;3.58;1.20;;;;;;;17.87;47.33;99925.56;5051730;28;20098;-63
2023/04/26 10:50:02;;;;;;;2.15;1.23;;;;;;;17.91;47.89;99926.94;5051623;28;20061;-64
2023/04/26 10:53:06;;;;;;;2.65;1.30;;;;;;;17.93;47.80;99924.94;5051930;28;20053;-64
2023/04/26 10:55:40;;;;;;;3.08;1.30;;;;;;;17.96;47.88;99930.91;5051436;28;20131;-64
2023/04/26 10:58:26;;;;;;;1.98;1.15;;;;;;;17.99;47.91;99919.81;5051497;28;20045;-64
2023/04/26 11:01:05;;;;;;;2.05;1.08;;;;;;;18.03;47.89;99914.97;5051767;28;20049;-64
2023/04/26 11:03:33;;;;;;;1.98;1.10;;;;;;;18.04;48.13;99916.66;5051484;28;20049;-64
2023/04/26 11:06:06;;;;;;;2.15;1.15;;;;;;;18.08;47.86;99923.47;5051476;28;20041;-64
2023/04/26 11:08:35;;;;;;;2.50;1.17;;;;;;;18.09;47.93;99917.09;5051558;28;20048;-64
2023/04/26 11:11:11;;;;;;;2.78;1.27;;;;;;;18.10;47.62;99921.47;5051455;28;20107;-64
2023/04/26 11:13:41;;;;;;;1.45;1.00;;;;;;;18.12;47.76;99914.06;5051413;28;20491;-64
2023/04/26 11:16:10;;;;;;;2.17;1.30;;;;;;;18.14;47.82;99922.88;5051582;28;20068;-65
2023/04/26 11:18:40;;;;;;;1.85;1.05;;;;;;;18.18;47.50;99934.25;5051300;28;20049;-64
2023/04/26 11:21:09;;;;;;;3.30;1.20;;;;;;;18.21;47.66;99917.72;5051183;28;20084;-64
2023/04/26 11:23:37;;;;;;;2.20;1.15;;;;;;;18.23;47.29;99921.13;5051102;28;20041;-65
2023/04/26 11:26:08;;;;;;;2.33;1.30;;;;;;;18.25;47.72;99920.00;5051148;28;20056;-64
2023/04/26 11:28:38;;;;;;;1.75;1.05;;;;;;;18.26;47.45;99937.06;5051120;28;20049;-64
2023/04/26 11:31:08;;;;;;;2.30;1.20;;;;;;;18.27;47.27;99928.78;5051207;28;20045;-65
2023/04/26 11:33:36;;;;;;;2.40;1.30;;;;;;;18.28;47.47;99925.09;5050913;28;20049;-64
2023/04/26 11:36:05;;;;;;;2.15;0.98;;;;;;;18.28;46.97;99935.91;5050886;28;20532;-64
2023/04/26 11:38:33;;;;;;;2.65;1.30;;;;;;;18.29;46.73;99931.34;5054605;28;20056;-63
2023/04/26 11:41:02;;;;;;;2.25;1.08;;;;;;;18.29;46.94;99948.38;5055211;28;20458;-64
2023/04/26 11:43:35;;;;;;;3.15;1.27;;;;;;;18.30;46.30;99952.78;5055102;28;20099;-65
2023/04/26 11:46:04;;;;;;;3.08;1.20;;;;;;;18.32;46.05;99941.84;5054800;28;20099;-64